AFR48KI LFCR-LFPO
Flight info
| Callsign | AFR48KI |
|---|---|
| Flight time | 0h 53m |
| Altitude | 34000 |
| Route | ESISI DCT PERIG DCT DIBAG DCT TUDRA/N0395F280 DCT BEVOL/N0414F300 UT158 AMB |
| Aircraft | A319/M-SDE3FGHIRWY/LB1 |
Departure
| Time | 2026-05-01 12:25 |
|---|---|
| Airport | Rodez–Aveyron Airport (LFCR) |
Arrival
| Time | 2026-05-01 13:18 |
|---|---|
| Airport | Paris-Orly Airport (LFPO) |
| Time | Latitude | Longitude | Altitude | Speed | Heading |
|---|---|---|---|---|---|
| 2026-05-01 11:59 | 44.40974 | 2.48367 | 1914 ft | 0 kts | 166° |
| 2026-05-01 12:20 | 44.40963 | 2.48372 | 1900 ft | 6 kts | 162° |
| 2026-05-01 12:20 | 44.40906 | 2.48412 | 1912 ft | 10 kts | 151° |
| 2026-05-01 12:21 | 44.40840 | 2.48441 | 1914 ft | 10 kts | 202° |
| 2026-05-01 12:21 | 44.40783 | 2.48376 | 1909 ft | 11 kts | 219° |
| 2026-05-01 12:21 | 44.40777 | 2.48278 | 1910 ft | 11 kts | 299° |
| 2026-05-01 12:21 | 44.40821 | 2.48183 | 1902 ft | 12 kts | 309° |
| 2026-05-01 12:22 | 44.40880 | 2.48086 | 1902 ft | 14 kts | 311° |
| 2026-05-01 12:22 | 44.40943 | 2.47990 | 1913 ft | 13 kts | 310° |
| 2026-05-01 12:22 | 44.41000 | 2.47894 | 1903 ft | 13 kts | 309° |
| 2026-05-01 12:22 | 44.41056 | 2.47796 | 1906 ft | 13 kts | 309° |
| 2026-05-01 12:23 | 44.41117 | 2.47690 | 1910 ft | 14 kts | 309° |
| 2026-05-01 12:23 | 44.41180 | 2.47578 | 1903 ft | 15 kts | 308° |
| 2026-05-01 12:23 | 44.41247 | 2.47464 | 1908 ft | 15 kts | 309° |
| 2026-05-01 12:23 | 44.41319 | 2.47356 | 1914 ft | 16 kts | 332° |
| 2026-05-01 12:24 | 44.41351 | 2.47283 | 1904 ft | 6 kts | 176° |
| 2026-05-01 12:24 | 44.41341 | 2.47302 | 1910 ft | 0 kts | 127° |
| 2026-05-01 12:24 | 44.41328 | 2.47325 | 1905 ft | 22 kts | 127° |
| 2026-05-01 12:25 | 44.41065 | 2.47785 | 1911 ft | 95 kts | 129° |
| 2026-05-01 12:25 | 44.39986 | 2.49638 | 2862 ft | 125 kts | 133° |
| 2026-05-01 12:25 | 44.39434 | 2.50555 | 3585 ft | 122 kts | 133° |
| 2026-05-01 12:26 | 44.38904 | 2.51446 | 4220 ft | 117 kts | 132° |
| 2026-05-01 12:26 | 44.37854 | 2.53266 | 5411 ft | 125 kts | 134° |
| 2026-05-01 12:26 | 44.37260 | 2.54288 | 5855 ft | 147 kts | 134° |
| 2026-05-01 12:27 | 44.36570 | 2.55474 | 6290 ft | 167 kts | 131° |
| 2026-05-01 12:27 | 44.34434 | 2.57294 | 6808 ft | 216 kts | 188° |
| 2026-05-01 12:28 | 44.32314 | 2.54031 | 7644 ft | 273 kts | 263° |
| 2026-05-01 12:28 | 44.32699 | 2.51398 | 8467 ft | 288 kts | 298° |
| 2026-05-01 12:28 | 44.35903 | 2.47966 | 10409 ft | 300 kts | 334° |
| 2026-05-01 12:29 | 44.37876 | 2.46724 | 10873 ft | 323 kts | 334° |
| 2026-05-01 12:29 | 44.39982 | 2.45353 | 11322 ft | 342 kts | 332° |
| 2026-05-01 12:29 | 44.44056 | 2.41756 | 12897 ft | 350 kts | 313° |
| 2026-05-01 12:30 | 44.46696 | 2.36028 | 14482 ft | 352 kts | 293° |
| 2026-05-01 12:30 | 44.47778 | 2.32931 | 15242 ft | 355 kts | 293° |
| 2026-05-01 12:30 | 44.48881 | 2.29820 | 15954 ft | 359 kts | 294° |
| 2026-05-01 12:31 | 44.50005 | 2.26685 | 16667 ft | 363 kts | 294° |
| 2026-05-01 12:31 | 44.51148 | 2.23517 | 17384 ft | 366 kts | 294° |
| 2026-05-01 12:31 | 44.52307 | 2.20313 | 18069 ft | 371 kts | 294° |
| 2026-05-01 12:31 | 44.53479 | 2.17071 | 18760 ft | 374 kts | 294° |
| 2026-05-01 12:32 | 44.54656 | 2.13805 | 19393 ft | 377 kts | 294° |
| 2026-05-01 12:32 | 44.57030 | 2.07182 | 20642 ft | 383 kts | 294° |
| 2026-05-01 12:32 | 44.58227 | 2.03822 | 21264 ft | 386 kts | 294° |
| 2026-05-01 12:33 | 44.59429 | 2.00441 | 21869 ft | 389 kts | 294° |
| 2026-05-01 12:33 | 44.60642 | 1.97029 | 22485 ft | 393 kts | 294° |
| 2026-05-01 12:33 | 44.61866 | 1.93589 | 23081 ft | 396 kts | 294° |
| 2026-05-01 12:33 | 44.63101 | 1.90114 | 23651 ft | 399 kts | 294° |
| 2026-05-01 12:34 | 44.64342 | 1.86613 | 24141 ft | 402 kts | 294° |
| 2026-05-01 12:34 | 44.65593 | 1.83082 | 24602 ft | 405 kts | 294° |
| 2026-05-01 12:34 | 44.66852 | 1.79532 | 25075 ft | 407 kts | 294° |
| 2026-05-01 12:34 | 44.68117 | 1.75960 | 25533 ft | 410 kts | 294° |
| 2026-05-01 12:35 | 44.69390 | 1.72360 | 25978 ft | 412 kts | 294° |
| 2026-05-01 12:35 | 44.70669 | 1.68734 | 26426 ft | 415 kts | 294° |
| 2026-05-01 12:35 | 44.71951 | 1.65088 | 26865 ft | 417 kts | 294° |
| 2026-05-01 12:35 | 44.73238 | 1.61418 | 27301 ft | 420 kts | 294° |
| 2026-05-01 12:36 | 44.74533 | 1.57729 | 27726 ft | 423 kts | 294° |
| 2026-05-01 12:36 | 44.75968 | 1.54108 | 28160 ft | 427 kts | 302° |
| 2026-05-01 12:36 | 44.77850 | 1.50839 | 28570 ft | 433 kts | 312° |
| 2026-05-01 12:36 | 44.80145 | 1.48056 | 28990 ft | 439 kts | 322° |
| 2026-05-01 12:37 | 44.82793 | 1.45876 | 29393 ft | 444 kts | 333° |
| 2026-05-01 12:37 | 44.85666 | 1.44215 | 29785 ft | 447 kts | 333° |
| 2026-05-01 12:37 | 44.87517 | 1.42823 | 30034 ft | 446 kts | 325° |
| 2026-05-01 12:37 | 44.89973 | 1.40157 | 30394 ft | 445 kts | 315° |
| 2026-05-01 12:38 | 44.92081 | 1.36963 | 30708 ft | 445 kts | 306° |
| 2026-05-01 12:38 | 44.93883 | 1.33410 | 31018 ft | 446 kts | 302° |
| 2026-05-01 12:38 | 44.95656 | 1.29794 | 31311 ft | 449 kts | 302° |
| 2026-05-01 12:38 | 44.97446 | 1.26169 | 31599 ft | 452 kts | 303° |
| 2026-05-01 12:39 | 44.99248 | 1.22528 | 31960 ft | 452 kts | 302° |
| 2026-05-01 12:39 | 45.01042 | 1.18891 | 32383 ft | 451 kts | 302° |
| 2026-05-01 12:39 | 45.02831 | 1.15248 | 32806 ft | 451 kts | 302° |
| 2026-05-01 12:39 | 45.04612 | 1.11599 | 33229 ft | 450 kts | 302° |
| 2026-05-01 12:40 | 45.06384 | 1.07955 | 33640 ft | 450 kts | 302° |
| 2026-05-01 12:40 | 45.08198 | 1.04345 | 34047 ft | 451 kts | 307° |
| 2026-05-01 12:40 | 45.10349 | 1.01103 | 34200 ft | 452 kts | 316° |
| 2026-05-01 12:40 | 45.12832 | 0.98394 | 34223 ft | 449 kts | 326° |
| 2026-05-01 12:41 | 45.18599 | 0.95072 | 34217 ft | 452 kts | 347° |
| 2026-05-01 12:41 | 45.24783 | 0.93453 | 34222 ft | 452 kts | 348° |
| 2026-05-01 12:42 | 45.31002 | 0.91790 | 34221 ft | 451 kts | 347° |
| 2026-05-01 12:42 | 45.37168 | 0.90109 | 34224 ft | 451 kts | 347° |
| 2026-05-01 12:43 | 45.43335 | 0.88438 | 34225 ft | 451 kts | 347° |
| 2026-05-01 12:43 | 45.49498 | 0.86778 | 34230 ft | 451 kts | 347° |
| 2026-05-01 12:44 | 45.55655 | 0.85110 | 34231 ft | 450 kts | 347° |
| 2026-05-01 12:45 | 45.67947 | 0.81762 | 34246 ft | 449 kts | 347° |
| 2026-05-01 12:45 | 45.74080 | 0.80084 | 34242 ft | 448 kts | 347° |
| 2026-05-01 12:46 | 45.80253 | 0.78745 | 34238 ft | 450 kts | 356° |
| 2026-05-01 12:46 | 45.86519 | 0.78692 | 34250 ft | 450 kts | 358° |
| 2026-05-01 12:47 | 45.92783 | 0.78639 | 34245 ft | 450 kts | 357° |
| 2026-05-01 12:47 | 45.99044 | 0.78570 | 34246 ft | 449 kts | 357° |
| 2026-05-01 12:48 | 46.05291 | 0.78507 | 34247 ft | 449 kts | 357° |
| 2026-05-01 12:48 | 46.11542 | 0.78456 | 34244 ft | 449 kts | 357° |
| 2026-05-01 12:49 | 46.17787 | 0.78414 | 34244 ft | 448 kts | 357° |
| 2026-05-01 12:49 | 46.24024 | 0.78358 | 34241 ft | 448 kts | 356° |
| 2026-05-01 12:50 | 46.30293 | 0.78294 | 34240 ft | 447 kts | 356° |
| 2026-05-01 12:50 | 46.36518 | 0.78238 | 34242 ft | 447 kts | 356° |
| 2026-05-01 12:51 | 46.42736 | 0.78187 | 34243 ft | 446 kts | 356° |
| 2026-05-01 12:52 | 46.52043 | 0.78098 | 34238 ft | 446 kts | 358° |
| 2026-05-01 12:52 | 46.58212 | 0.79433 | 34240 ft | 450 kts | 9° |
| 2026-05-01 12:52 | 46.61267 | 0.80407 | 34240 ft | 450 kts | 9° |
| 2026-05-01 12:53 | 46.70428 | 0.83303 | 34244 ft | 449 kts | 9° |
| 2026-05-01 12:54 | 46.76524 | 0.85227 | 34242 ft | 448 kts | 8° |
| 2026-05-01 12:54 | 46.85644 | 0.88120 | 34237 ft | 447 kts | 8° |
| 2026-05-01 12:55 | 46.94750 | 0.91019 | 34204 ft | 447 kts | 8° |
| 2026-05-01 12:56 | 47.00849 | 0.92962 | 34186 ft | 450 kts | 8° |
| 2026-05-01 12:56 | 47.06972 | 0.94926 | 34187 ft | 452 kts | 9° |
| 2026-05-01 12:57 | 47.13132 | 0.96891 | 34197 ft | 453 kts | 9° |
| 2026-05-01 12:57 | 47.22381 | 0.99827 | 34201 ft | 454 kts | 9° |
| 2026-05-01 12:58 | 47.25471 | 1.00816 | 33617 ft | 456 kts | 9° |
| 2026-05-01 12:58 | 47.28628 | 1.01831 | 32662 ft | 460 kts | 10° |
| 2026-05-01 12:58 | 47.31746 | 1.02835 | 31946 ft | 458 kts | 10° |
| 2026-05-01 12:59 | 47.37979 | 1.04855 | 30074 ft | 463 kts | 11° |
| 2026-05-01 12:59 | 47.41124 | 1.05873 | 29137 ft | 462 kts | 12° |
| 2026-05-01 12:59 | 47.47166 | 1.08655 | 28123 ft | 444 kts | 19° |
| 2026-05-01 13:00 | 47.52908 | 1.11589 | 27063 ft | 431 kts | 20° |
| 2026-05-01 13:00 | 47.55736 | 1.13017 | 26474 ft | 427 kts | 20° |
| 2026-05-01 13:01 | 47.61317 | 1.15832 | 25311 ft | 420 kts | 20° |
| 2026-05-01 13:01 | 47.64074 | 1.17230 | 24746 ft | 417 kts | 21° |
| 2026-05-01 13:01 | 47.69529 | 1.20004 | 23677 ft | 412 kts | 21° |
| 2026-05-01 13:02 | 47.72229 | 1.21379 | 23110 ft | 409 kts | 21° |
| 2026-05-01 13:07 | 48.20564 | 1.53489 | 11730 ft | 312 kts | 37° |
| 2026-05-01 13:07 | 48.22347 | 1.55297 | 11439 ft | 306 kts | 37° |
| 2026-05-01 13:07 | 48.24106 | 1.57084 | 11309 ft | 306 kts | 37° |
| 2026-05-01 13:08 | 48.25866 | 1.58872 | 11163 ft | 305 kts | 37° |
| 2026-05-01 13:08 | 48.27616 | 1.60654 | 11015 ft | 304 kts | 37° |
| 2026-05-01 13:08 | 48.29370 | 1.62437 | 10876 ft | 303 kts | 37° |
| 2026-05-01 13:08 | 48.31115 | 1.64210 | 10728 ft | 303 kts | 37° |
| 2026-05-01 13:09 | 48.32853 | 1.65983 | 10581 ft | 302 kts | 37° |
| 2026-05-01 13:09 | 48.34589 | 1.67760 | 10441 ft | 302 kts | 37° |
| 2026-05-01 13:09 | 48.36322 | 1.69537 | 10300 ft | 301 kts | 37° |
| 2026-05-01 13:09 | 48.38052 | 1.71305 | 10110 ft | 302 kts | 37° |
| 2026-05-01 13:10 | 48.39807 | 1.73097 | 9604 ft | 304 kts | 37° |
| 2026-05-01 13:10 | 48.41536 | 1.74860 | 9251 ft | 300 kts | 37° |
| 2026-05-01 13:10 | 48.43270 | 1.76631 | 8835 ft | 299 kts | 37° |
| 2026-05-01 13:10 | 48.44983 | 1.78386 | 8443 ft | 297 kts | 37° |
| 2026-05-01 13:11 | 48.46691 | 1.80136 | 8049 ft | 296 kts | 36° |
| 2026-05-01 13:11 | 48.48381 | 1.81868 | 7665 ft | 293 kts | 36° |
| 2026-05-01 13:11 | 48.50037 | 1.83566 | 7260 ft | 292 kts | 36° |
| 2026-05-01 13:11 | 48.51716 | 1.85295 | 6795 ft | 293 kts | 36° |
| 2026-05-01 13:12 | 48.53428 | 1.87064 | 6028 ft | 304 kts | 36° |
| 2026-05-01 13:12 | 48.54603 | 1.88276 | 5805 ft | 300 kts | 36° |
| 2026-05-01 13:12 | 48.56295 | 1.90018 | 5647 ft | 289 kts | 36° |
| 2026-05-01 13:12 | 48.57751 | 1.91962 | 5518 ft | 273 kts | 55° |
| 2026-05-01 13:13 | 48.58668 | 1.94390 | 5264 ft | 264 kts | 66° |
| 2026-05-01 13:13 | 48.59498 | 1.96802 | 5092 ft | 253 kts | 64° |
| 2026-05-01 13:13 | 48.60325 | 1.99076 | 4977 ft | 241 kts | 64° |
| 2026-05-01 13:13 | 48.61130 | 2.01266 | 4723 ft | 236 kts | 63° |
| 2026-05-01 13:14 | 48.61926 | 2.03448 | 4446 ft | 239 kts | 63° |
| 2026-05-01 13:14 | 48.62718 | 2.05650 | 4136 ft | 238 kts | 64° |
| 2026-05-01 13:14 | 48.63506 | 2.07853 | 3813 ft | 237 kts | 64° |
| 2026-05-01 13:14 | 48.64287 | 2.10037 | 3519 ft | 236 kts | 63° |
| 2026-05-01 13:15 | 48.64787 | 2.11433 | 3307 ft | 236 kts | 63° |
| 2026-05-01 13:15 | 48.65442 | 2.13225 | 3049 ft | 235 kts | 64° |
| 2026-05-01 13:15 | 48.66206 | 2.15396 | 2743 ft | 233 kts | 64° |
| 2026-05-01 13:15 | 48.66972 | 2.17557 | 2427 ft | 232 kts | 63° |
| 2026-05-01 13:16 | 48.67733 | 2.19695 | 2140 ft | 229 kts | 63° |
| 2026-05-01 13:16 | 48.68458 | 2.21727 | 1829 ft | 209 kts | 63° |
| 2026-05-01 13:16 | 48.69113 | 2.23566 | 1557 ft | 188 kts | 64° |
| 2026-05-01 13:17 | 48.70745 | 2.28153 | 919 ft | 147 kts | 62° |
| 2026-05-01 13:17 | 48.71222 | 2.29498 | 697 ft | 144 kts | 62° |
| 2026-05-01 13:18 | 48.72150 | 2.32125 | 329 ft | 139 kts | 62° |
| 2026-05-01 13:18 | 48.72559 | 2.33279 | 291 ft | 103 kts | 62° |
| 2026-05-01 13:18 | 48.72813 | 2.34001 | 294 ft | 53 kts | 62° |
| 2026-05-01 13:18 | 48.72952 | 2.34392 | 289 ft | 40 kts | 63° |
| 2026-05-01 13:19 | 48.73015 | 2.34791 | 289 ft | 39 kts | 83° |
| 2026-05-01 13:19 | 48.73038 | 2.35154 | 290 ft | 24 kts | 103° |
| 2026-05-01 13:19 | 48.72897 | 2.35504 | 290 ft | 18 kts | 106° |
| 2026-05-01 13:20 | 48.72793 | 2.35594 | 292 ft | 18 kts | 142° |
| 2026-05-01 13:20 | 48.72817 | 2.35681 | 291 ft | 9 kts | 40° |
| 2026-05-01 13:20 | 48.72826 | 2.35694 | 290 ft | 0 kts | 41° |